Terminal Aerodrome Forecast
Issued by NWS Cleveland, OH

Home | Current Version | Previous Version | Graphics & Text | Print | Product List | Glossary On
Versions: 1 2 3 4 5 6 7 8 9 10 11 12 13 14 15 16
770
FTUS41 KCLE 210520
TAFCAK
TAF
KCAK 210520Z 2106/2206 VRB03KT P6SM SCT040 SCT080
      TEMPO 2106/2110 BKN080
     FM211000 VRB03KT P6SM SCT025 BKN040
     FM211500 01005KT P6SM SCT080
     FM220300 08004KT P6SM SCT250=

USA.gov is the U.S. government's official web portal to all federal, state and local government web resources and services.